sensor_id;sensor_type;location;lat;lon;timestamp;P1;durP1;ratioP1;P2;durP2;ratioP2
51036;SDS011;37064;59.346;18.058;2023-05-10T00:00:30;8.25;;;4.50;;
51036;SDS011;37064;59.346;18.058;2023-05-10T00:02:56;9.90;;;4.38;;
51036;SDS011;37064;59.346;18.058;2023-05-10T00:05:22;8.02;;;3.85;;
51036;SDS011;37064;59.346;18.058;2023-05-10T00:07:48;9.05;;;5.18;;
51036;SDS011;37064;59.346;18.058;2023-05-10T00:10:14;13.50;;;4.32;;
51036;SDS011;37064;59.346;18.058;2023-05-10T00:12:40;12.38;;;4.20;;
51036;SDS011;37064;59.346;18.058;2023-05-10T00:15:06;6.45;;;3.95;;
51036;SDS011;37064;59.346;18.058;2023-05-10T00:17:32;9.68;;;3.65;;
51036;SDS011;37064;59.346;18.058;2023-05-10T00:19:58;7.07;;;4.25;;
51036;SDS011;37064;59.346;18.058;2023-05-10T00:22:25;5.45;;;3.45;;
51036;SDS011;37064;59.346;18.058;2023-05-10T00:24:51;10.52;;;4.90;;
51036;SDS011;37064;59.346;18.058;2023-05-10T00:27:17;5.05;;;3.80;;
51036;SDS011;37064;59.346;18.058;2023-05-10T00:29:43;7.25;;;4.72;;
51036;SDS011;37064;59.346;18.058;2023-05-10T00:32:09;9.85;;;5.07;;
51036;SDS011;37064;59.346;18.058;2023-05-10T00:34:35;9.05;;;4.47;;
51036;SDS011;37064;59.346;18.058;2023-05-10T00:37:01;9.88;;;4.10;;
51036;SDS011;37064;59.346;18.058;2023-05-10T00:39:27;11.75;;;4.65;;
51036;SDS011;37064;59.346;18.058;2023-05-10T00:41:53;9.27;;;4.97;;
51036;SDS011;37064;59.346;18.058;2023-05-10T00:44:19;9.90;;;4.43;;
51036;SDS011;37064;59.346;18.058;2023-05-10T00:46:46;7.93;;;4.57;;
51036;SDS011;37064;59.346;18.058;2023-05-10T00:49:12;10.52;;;4.88;;
51036;SDS011;37064;59.346;18.058;2023-05-10T00:51:38;8.75;;;4.28;;
51036;SDS011;37064;59.346;18.058;2023-05-10T00:54:04;9.73;;;4.20;;
51036;SDS011;37064;59.346;18.058;2023-05-10T00:56:31;10.02;;;4.65;;
51036;SDS011;37064;59.346;18.058;2023-05-10T00:58:57;7.35;;;4.20;;
51036;SDS011;37064;59.346;18.058;2023-05-10T01:01:23;14.60;;;5.45;;
51036;SDS011;37064;59.346;18.058;2023-05-10T01:03:50;10.73;;;4.80;;
51036;SDS011;37064;59.346;18.058;2023-05-10T01:06:17;10.55;;;3.90;;
51036;SDS011;37064;59.346;18.058;2023-05-10T01:08:43;7.07;;;4.28;;
51036;SDS011;37064;59.346;18.058;2023-05-10T01:11:09;9.80;;;4.63;;
51036;SDS011;37064;59.346;18.058;2023-05-10T01:13:36;10.30;;;5.15;;
51036;SDS011;37064;59.346;18.058;2023-05-10T01:16:02;6.88;;;4.07;;
51036;SDS011;37064;59.346;18.058;2023-05-10T01:18:29;9.15;;;4.40;;
51036;SDS011;37064;59.346;18.058;2023-05-10T01:21:03;10.25;;;5.28;;
51036;SDS011;37064;59.346;18.058;2023-05-10T01:23:35;9.35;;;4.75;;
51036;SDS011;37064;59.346;18.058;2023-05-10T01:26:07;8.32;;;4.00;;
51036;SDS011;37064;59.346;18.058;2023-05-10T01:31:38;10.13;;;4.70;;
51036;SDS011;37064;59.346;18.058;2023-05-10T01:34:16;10.48;;;5.25;;
51036;SDS011;37064;59.346;18.058;2023-05-10T01:36:47;9.27;;;4.78;;
51036;SDS011;37064;59.346;18.058;2023-05-10T01:39:18;10.85;;;4.50;;
51036;SDS011;37064;59.346;18.058;2023-05-10T01:41:52;6.95;;;3.97;;
51036;SDS011;37064;59.346;18.058;2023-05-10T01:44:24;10.43;;;4.50;;
51036;SDS011;37064;59.346;18.058;2023-05-10T01:46:53;6.85;;;4.22;;
51036;SDS011;37064;59.346;18.058;2023-05-10T01:49:23;10.52;;;4.60;;
51036;SDS011;37064;59.346;18.058;2023-05-10T01:51:51;7.40;;;4.70;;
51036;SDS011;37064;59.346;18.058;2023-05-10T01:54:20;7.70;;;4.30;;
51036;SDS011;37064;59.346;18.058;2023-05-10T01:56:47;11.43;;;4.50;;
51036;SDS011;37064;59.346;18.058;2023-05-10T01:59:15;7.43;;;4.63;;
51036;SDS011;37064;59.346;18.058;2023-05-10T02:01:42;7.63;;;4.33;;
51036;SDS011;37064;59.346;18.058;2023-05-10T02:04:10;9.50;;;4.57;;
51036;SDS011;37064;59.346;18.058;2023-05-10T02:06:36;7.18;;;4.47;;
51036;SDS011;37064;59.346;18.058;2023-05-10T02:09:03;8.02;;;4.47;;
51036;SDS011;37064;59.346;18.058;2023-05-10T02:11:30;12.75;;;4.97;;
51036;SDS011;37064;59.346;18.058;2023-05-10T02:13:57;10.10;;;4.97;;
51036;SDS011;37064;59.346;18.058;2023-05-10T02:16:24;9.32;;;4.20;;
51036;SDS011;37064;59.346;18.058;2023-05-10T02:18:52;11.38;;;5.05;;
51036;SDS011;37064;59.346;18.058;2023-05-10T02:21:19;8.60;;;4.53;;
51036;SDS011;37064;59.346;18.058;2023-05-10T02:23:46;8.10;;;4.65;;
51036;SDS011;37064;59.346;18.058;2023-05-10T02:26:12;10.73;;;4.38;;
51036;SDS011;37064;59.346;18.058;2023-05-10T02:28:40;7.97;;;4.40;;
51036;SDS011;37064;59.346;18.058;2023-05-10T02:31:06;8.02;;;4.75;;
51036;SDS011;37064;59.346;18.058;2023-05-10T02:33:34;7.53;;;4.50;;
51036;SDS011;37064;59.346;18.058;2023-05-10T02:36:01;7.68;;;4.57;;
51036;SDS011;37064;59.346;18.058;2023-05-10T02:38:28;10.35;;;5.47;;
51036;SDS011;37064;59.346;18.058;2023-05-10T02:40:56;8.80;;;5.53;;
51036;SDS011;37064;59.346;18.058;2023-05-10T02:43:22;6.85;;;4.57;;
51036;SDS011;37064;59.346;18.058;2023-05-10T02:45:49;11.23;;;4.80;;
51036;SDS011;37064;59.346;18.058;2023-05-10T02:48:15;9.52;;;4.90;;
51036;SDS011;37064;59.346;18.058;2023-05-10T02:50:42;9.38;;;4.70;;
51036;SDS011;37064;59.346;18.058;2023-05-10T02:53:10;7.95;;;4.50;;
51036;SDS011;37064;59.346;18.058;2023-05-10T02:55:37;10.50;;;5.03;;
51036;SDS011;37064;59.346;18.058;2023-05-10T02:58:04;7.28;;;4.50;;
51036;SDS011;37064;59.346;18.058;2023-05-10T03:00:31;8.60;;;4.15;;
51036;SDS011;37064;59.346;18.058;2023-05-10T03:02:57;7.57;;;4.53;;
51036;SDS011;37064;59.346;18.058;2023-05-10T03:05:23;10.27;;;4.15;;
51036;SDS011;37064;59.346;18.058;2023-05-10T03:07:49;8.70;;;4.28;;
51036;SDS011;37064;59.346;18.058;2023-05-10T03:10:16;12.88;;;4.93;;
51036;SDS011;37064;59.346;18.058;2023-05-10T03:21:04;5.88;;;4.13;;
51036;SDS011;37064;59.346;18.058;2023-05-10T03:23:35;9.13;;;5.07;;
51036;SDS011;37064;59.346;18.058;2023-05-10T03:26:01;10.93;;;5.22;;
51036;SDS011;37064;59.346;18.058;2023-05-10T03:28:28;8.60;;;4.50;;
51036;SDS011;37064;59.346;18.058;2023-05-10T03:30:54;9.73;;;5.13;;
51036;SDS011;37064;59.346;18.058;2023-05-10T03:33:20;8.43;;;4.65;;
51036;SDS011;37064;59.346;18.058;2023-05-10T03:35:46;9.85;;;5.35;;
51036;SDS011;37064;59.346;18.058;2023-05-10T03:38:12;9.10;;;4.22;;
51036;SDS011;37064;59.346;18.058;2023-05-10T03:40:39;6.03;;;4.20;;
51036;SDS011;37064;59.346;18.058;2023-05-10T03:43:05;9.45;;;4.65;;
51036;SDS011;37064;59.346;18.058;2023-05-10T03:45:31;15.27;;;5.88;;
51036;SDS011;37064;59.346;18.058;2023-05-10T03:47:57;10.52;;;5.00;;
51036;SDS011;37064;59.346;18.058;2023-05-10T03:50:23;9.05;;;5.20;;
51036;SDS011;37064;59.346;18.058;2023-05-10T03:52:50;11.90;;;5.10;;
51036;SDS011;37064;59.346;18.058;2023-05-10T03:55:16;9.85;;;5.28;;
51036;SDS011;37064;59.346;18.058;2023-05-10T03:57:42;10.45;;;5.03;;
51036;SDS011;37064;59.346;18.058;2023-05-10T04:00:08;7.28;;;4.57;;
51036;SDS011;37064;59.346;18.058;2023-05-10T04:02:34;8.05;;;4.20;;
51036;SDS011;37064;59.346;18.058;2023-05-10T04:05:00;7.97;;;4.40;;
51036;SDS011;37064;59.346;18.058;2023-05-10T04:07:26;7.53;;;4.40;;
51036;SDS011;37064;59.346;18.058;2023-05-10T04:09:52;7.07;;;4.60;;
51036;SDS011;37064;59.346;18.058;2023-05-10T04:12:18;7.95;;;4.55;;
51036;SDS011;37064;59.346;18.058;2023-05-10T04:14:44;7.45;;;4.28;;
51036;SDS011;37064;59.346;18.058;2023-05-10T04:17:10;9.13;;;4.53;;
51036;SDS011;37064;59.346;18.058;2023-05-10T04:19:36;7.00;;;4.70;;
51036;SDS011;37064;59.346;18.058;2023-05-10T04:22:03;6.85;;;3.72;;
51036;SDS011;37064;59.346;18.058;2023-05-10T04:24:29;6.05;;;4.20;;
51036;SDS011;37064;59.346;18.058;2023-05-10T04:26:55;9.88;;;4.40;;
51036;SDS011;37064;59.346;18.058;2023-05-10T04:29:21;8.18;;;4.03;;
51036;SDS011;37064;59.346;18.058;2023-05-10T04:31:47;8.98;;;4.43;;
51036;SDS011;37064;59.346;18.058;2023-05-10T04:34:13;6.88;;;5.13;;
51036;SDS011;37064;59.346;18.058;2023-05-10T04:36:39;7.25;;;4.53;;
51036;SDS011;37064;59.346;18.058;2023-05-10T04:39:05;7.05;;;3.80;;
51036;SDS011;37064;59.346;18.058;2023-05-10T04:41:32;6.53;;;3.80;;
51036;SDS011;37064;59.346;18.058;2023-05-10T04:43:58;17.40;;;5.57;;
51036;SDS011;37064;59.346;18.058;2023-05-10T04:46:23;8.57;;;3.95;;
51036;SDS011;37064;59.346;18.058;2023-05-10T04:48:50;13.38;;;4.43;;
51036;SDS011;37064;59.346;18.058;2023-05-10T04:51:16;9.77;;;3.90;;
51036;SDS011;37064;59.346;18.058;2023-05-10T04:53:42;11.65;;;4.20;;
51036;SDS011;37064;59.346;18.058;2023-05-10T04:56:08;7.28;;;3.13;;
51036;SDS011;37064;59.346;18.058;2023-05-10T04:58:34;10.07;;;3.85;;
51036;SDS011;37064;59.346;18.058;2023-05-10T05:01:06;6.85;;;4.13;;
51036;SDS011;37064;59.346;18.058;2023-05-10T05:03:36;11.35;;;4.28;;
51036;SDS011;37064;59.346;18.058;2023-05-10T05:06:02;10.10;;;3.97;;
51036;SDS011;37064;59.346;18.058;2023-05-10T05:08:28;10.63;;;3.47;;
51036;SDS011;37064;59.346;18.058;2023-05-10T05:10:54;8.25;;;3.85;;
51036;SDS011;37064;59.346;18.058;2023-05-10T05:13:20;8.48;;;3.75;;
51036;SDS011;37064;59.346;18.058;2023-05-10T05:15:46;7.80;;;3.92;;
51036;SDS011;37064;59.346;18.058;2023-05-10T05:18:12;12.02;;;3.25;;
51036;SDS011;37064;59.346;18.058;2023-05-10T05:20:38;9.35;;;3.85;;
51036;SDS011;37064;59.346;18.058;2023-05-10T05:23:04;7.78;;;3.38;;
51036;SDS011;37064;59.346;18.058;2023-05-10T05:25:30;9.00;;;3.42;;
51036;SDS011;37064;59.346;18.058;2023-05-10T05:27:57;9.10;;;3.97;;
51036;SDS011;37064;59.346;18.058;2023-05-10T05:30:23;9.00;;;3.50;;
51036;SDS011;37064;59.346;18.058;2023-05-10T05:32:49;6.45;;;3.13;;
51036;SDS011;37064;59.346;18.058;2023-05-10T05:35:15;7.97;;;2.78;;
51036;SDS011;37064;59.346;18.058;2023-05-10T05:37:41;7.93;;;3.20;;
51036;SDS011;37064;59.346;18.058;2023-05-10T05:40:07;11.25;;;3.67;;
51036;SDS011;37064;59.346;18.058;2023-05-10T05:42:33;7.00;;;2.95;;
51036;SDS011;37064;59.346;18.058;2023-05-10T05:44:59;7.65;;;3.15;;
51036;SDS011;37064;59.346;18.058;2023-05-10T05:47:25;7.13;;;2.92;;
51036;SDS011;37064;59.346;18.058;2023-05-10T05:49:51;4.75;;;2.90;;
51036;SDS011;37064;59.346;18.058;2023-05-10T05:52:17;15.98;;;3.78;;
51036;SDS011;37064;59.346;18.058;2023-05-10T05:54:43;6.30;;;2.95;;
51036;SDS011;37064;59.346;18.058;2023-05-10T05:57:09;5.85;;;3.50;;
51036;SDS011;37064;59.346;18.058;2023-05-10T05:59:35;8.63;;;2.95;;
51036;SDS011;37064;59.346;18.058;2023-05-10T06:02:01;9.52;;;3.28;;
51036;SDS011;37064;59.346;18.058;2023-05-10T06:04:27;8.75;;;3.22;;
51036;SDS011;37064;59.346;18.058;2023-05-10T06:06:53;6.75;;;2.65;;
51036;SDS011;37064;59.346;18.058;2023-05-10T06:09:19;7.60;;;2.88;;
51036;SDS011;37064;59.346;18.058;2023-05-10T06:11:45;7.03;;;3.03;;
51036;SDS011;37064;59.346;18.058;2023-05-10T06:14:11;8.50;;;3.45;;
51036;SDS011;37064;59.346;18.058;2023-05-10T06:16:37;6.60;;;3.05;;
51036;SDS011;37064;59.346;18.058;2023-05-10T06:19:03;7.15;;;3.30;;
51036;SDS011;37064;59.346;18.058;2023-05-10T06:21:29;6.90;;;2.90;;
51036;SDS011;37064;59.346;18.058;2023-05-10T06:23:55;12.00;;;3.50;;
51036;SDS011;37064;59.346;18.058;2023-05-10T06:26:21;11.57;;;3.33;;
51036;SDS011;37064;59.346;18.058;2023-05-10T06:28:47;9.27;;;3.53;;
51036;SDS011;37064;59.346;18.058;2023-05-10T06:31:13;7.15;;;2.78;;
51036;SDS011;37064;59.346;18.058;2023-05-10T06:33:39;7.30;;;3.08;;
51036;SDS011;37064;59.346;18.058;2023-05-10T06:36:05;11.23;;;3.90;;
51036;SDS011;37064;59.346;18.058;2023-05-10T06:38:31;9.48;;;2.95;;
51036;SDS011;37064;59.346;18.058;2023-05-10T06:40:58;10.50;;;3.42;;
51036;SDS011;37064;59.346;18.058;2023-05-10T06:43:24;7.57;;;2.95;;
51036;SDS011;37064;59.346;18.058;2023-05-10T06:45:51;6.00;;;3.08;;
51036;SDS011;37064;59.346;18.058;2023-05-10T06:48:17;10.57;;;3.10;;
51036;SDS011;37064;59.346;18.058;2023-05-10T06:50:43;7.45;;;3.30;;
51036;SDS011;37064;59.346;18.058;2023-05-10T06:53:09;9.18;;;2.40;;
51036;SDS011;37064;59.346;18.058;2023-05-10T06:55:37;10.48;;;3.08;;
51036;SDS011;37064;59.346;18.058;2023-05-10T06:58:02;5.75;;;3.25;;
51036;SDS011;37064;59.346;18.058;2023-05-10T07:00:29;9.20;;;3.42;;
51036;SDS011;37064;59.346;18.058;2023-05-10T07:02:55;10.70;;;3.58;;
51036;SDS011;37064;59.346;18.058;2023-05-10T07:05:21;10.00;;;2.85;;
51036;SDS011;37064;59.346;18.058;2023-05-10T07:07:47;11.68;;;2.88;;
51036;SDS011;37064;59.346;18.058;2023-05-10T07:10:13;7.80;;;3.08;;
51036;SDS011;37064;59.346;18.058;2023-05-10T07:12:39;6.28;;;2.75;;
51036;SDS011;37064;59.346;18.058;2023-05-10T07:15:05;7.97;;;3.15;;
51036;SDS011;37064;59.346;18.058;2023-05-10T07:17:31;4.35;;;2.75;;
51036;SDS011;37064;59.346;18.058;2023-05-10T07:19:58;7.57;;;2.83;;
51036;SDS011;37064;59.346;18.058;2023-05-10T07:22:25;14.68;;;3.78;;
51036;SDS011;37064;59.346;18.058;2023-05-10T07:24:51;8.40;;;2.80;;
51036;SDS011;37064;59.346;18.058;2023-05-10T07:27:17;10.75;;;3.28;;
51036;SDS011;37064;59.346;18.058;2023-05-10T07:29:43;6.07;;;2.88;;
51036;SDS011;37064;59.346;18.058;2023-05-10T07:32:09;8.00;;;2.78;;
51036;SDS011;37064;59.346;18.058;2023-05-10T07:34:35;7.15;;;2.80;;
51036;SDS011;37064;59.346;18.058;2023-05-10T07:37:01;7.72;;;3.55;;
51036;SDS011;37064;59.346;18.058;2023-05-10T07:39:27;8.00;;;2.78;;
51036;SDS011;37064;59.346;18.058;2023-05-10T07:41:56;4.97;;;2.50;;
51036;SDS011;37064;59.346;18.058;2023-05-10T07:44:22;7.13;;;2.30;;
51036;SDS011;37064;59.346;18.058;2023-05-10T07:46:48;4.95;;;2.42;;
51036;SDS011;37064;59.346;18.058;2023-05-10T07:49:14;9.52;;;2.95;;
51036;SDS011;37064;59.346;18.058;2023-05-10T07:51:40;11.05;;;3.10;;
51036;SDS011;37064;59.346;18.058;2023-05-10T07:54:07;4.22;;;2.60;;
51036;SDS011;37064;59.346;18.058;2023-05-10T07:56:33;13.30;;;3.63;;
51036;SDS011;37064;59.346;18.058;2023-05-10T07:59:00;6.22;;;2.63;;
51036;SDS011;37064;59.346;18.058;2023-05-10T08:01:26;9.00;;;2.53;;
51036;SDS011;37064;59.346;18.058;2023-05-10T08:03:52;6.88;;;2.85;;
51036;SDS011;37064;59.346;18.058;2023-05-10T08:06:19;9.82;;;2.72;;
51036;SDS011;37064;59.346;18.058;2023-05-10T08:08:46;4.03;;;2.28;;
51036;SDS011;37064;59.346;18.058;2023-05-10T08:11:15;3.60;;;2.17;;
51036;SDS011;37064;59.346;18.058;2023-05-10T08:13:41;7.63;;;2.65;;
51036;SDS011;37064;59.346;18.058;2023-05-10T08:16:07;10.02;;;2.67;;
51036;SDS011;37064;59.346;18.058;2023-05-10T08:18:33;4.07;;;2.80;;
51036;SDS011;37064;59.346;18.058;2023-05-10T08:20:59;5.40;;;2.80;;
51036;SDS011;37064;59.346;18.058;2023-05-10T08:23:25;5.63;;;2.42;;
51036;SDS011;37064;59.346;18.058;2023-05-10T08:25:51;6.18;;;2.95;;
51036;SDS011;37064;59.346;18.058;2023-05-10T08:28:17;7.97;;;2.90;;
51036;SDS011;37064;59.346;18.058;2023-05-10T08:30:43;5.53;;;2.53;;
51036;SDS011;37064;59.346;18.058;2023-05-10T08:33:09;9.27;;;2.55;;
51036;SDS011;37064;59.346;18.058;2023-05-10T08:35:35;8.90;;;2.95;;
51036;SDS011;37064;59.346;18.058;2023-05-10T08:38:01;5.38;;;2.40;;
51036;SDS011;37064;59.346;18.058;2023-05-10T08:40:27;7.15;;;2.63;;
51036;SDS011;37064;59.346;18.058;2023-05-10T08:42:55;6.95;;;3.20;;
51036;SDS011;37064;59.346;18.058;2023-05-10T08:45:23;7.68;;;3.15;;
51036;SDS011;37064;59.346;18.058;2023-05-10T08:47:50;5.72;;;2.28;;
51036;SDS011;37064;59.346;18.058;2023-05-10T08:50:17;5.10;;;2.83;;
51036;SDS011;37064;59.346;18.058;2023-05-10T08:52:44;6.00;;;2.92;;
51036;SDS011;37064;59.346;18.058;2023-05-10T08:55:11;7.88;;;3.22;;
51036;SDS011;37064;59.346;18.058;2023-05-10T08:57:37;7.85;;;3.90;;
51036;SDS011;37064;59.346;18.058;2023-05-10T09:00:03;5.57;;;2.60;;
51036;SDS011;37064;59.346;18.058;2023-05-10T09:02:29;6.78;;;2.53;;
51036;SDS011;37064;59.346;18.058;2023-05-10T09:04:55;6.40;;;2.13;;
51036;SDS011;37064;59.346;18.058;2023-05-10T09:07:21;8.10;;;2.45;;
51036;SDS011;37064;59.346;18.058;2023-05-10T09:09:47;8.07;;;3.03;;
51036;SDS011;37064;59.346;18.058;2023-05-10T09:12:14;8.13;;;3.03;;
51036;SDS011;37064;59.346;18.058;2023-05-10T09:14:41;9.82;;;2.83;;
51036;SDS011;37064;59.346;18.058;2023-05-10T09:17:07;7.28;;;2.97;;
51036;SDS011;37064;59.346;18.058;2023-05-10T09:19:35;4.72;;;3.17;;
51036;SDS011;37064;59.346;18.058;2023-05-10T09:22:01;4.68;;;2.75;;
51036;SDS011;37064;59.346;18.058;2023-05-10T09:24:28;6.65;;;2.95;;
51036;SDS011;37064;59.346;18.058;2023-05-10T09:26:55;6.35;;;2.67;;
51036;SDS011;37064;59.346;18.058;2023-05-10T09:29:22;2.97;;;2.33;;
51036;SDS011;37064;59.346;18.058;2023-05-10T09:31:49;3.75;;;2.80;;
51036;SDS011;37064;59.346;18.058;2023-05-10T09:34:30;8.07;;;2.80;;
51036;SDS011;37064;59.346;18.058;2023-05-10T09:36:58;5.05;;;3.38;;
51036;SDS011;37064;59.346;18.058;2023-05-10T09:39:37;7.25;;;3.03;;
51036;SDS011;37064;59.346;18.058;2023-05-10T09:42:07;5.18;;;2.70;;
51036;SDS011;37064;59.346;18.058;2023-05-10T09:44:34;6.07;;;3.03;;
51036;SDS011;37064;59.346;18.058;2023-05-10T09:47:03;5.35;;;2.72;;
51036;SDS011;37064;59.346;18.058;2023-05-10T09:49:31;6.43;;;2.75;;
51036;SDS011;37064;59.346;18.058;2023-05-10T09:52:01;10.00;;;2.83;;
51036;SDS011;37064;59.346;18.058;2023-05-10T09:54:28;6.93;;;2.85;;
51036;SDS011;37064;59.346;18.058;2023-05-10T09:56:54;10.27;;;2.97;;
51036;SDS011;37064;59.346;18.058;2023-05-10T09:59:20;6.60;;;2.40;;
51036;SDS011;37064;59.346;18.058;2023-05-10T10:01:49;4.60;;;2.78;;
51036;SDS011;37064;59.346;18.058;2023-05-10T10:04:19;9.15;;;2.90;;
51036;SDS011;37064;59.346;18.058;2023-05-10T10:06:46;6.53;;;2.53;;
51036;SDS011;37064;59.346;18.058;2023-05-10T10:09:12;5.10;;;2.80;;
51036;SDS011;37064;59.346;18.058;2023-05-10T10:11:39;5.88;;;2.83;;
51036;SDS011;37064;59.346;18.058;2023-05-10T10:14:06;7.03;;;2.45;;
51036;SDS011;37064;59.346;18.058;2023-05-10T10:16:32;5.65;;;2.63;;
51036;SDS011;37064;59.346;18.058;2023-05-10T10:18:58;3.75;;;2.17;;
51036;SDS011;37064;59.346;18.058;2023-05-10T10:21:24;7.15;;;2.90;;
51036;SDS011;37064;59.346;18.058;2023-05-10T10:23:50;5.93;;;2.42;;
51036;SDS011;37064;59.346;18.058;2023-05-10T10:26:18;8.60;;;2.60;;
51036;SDS011;37064;59.346;18.058;2023-05-10T10:28:49;6.80;;;2.60;;
51036;SDS011;37064;59.346;18.058;2023-05-10T10:31:21;5.63;;;2.70;;
51036;SDS011;37064;59.346;18.058;2023-05-10T10:36:15;8.30;;;2.72;;
51036;SDS011;37064;59.346;18.058;2023-05-10T10:41:30;4.00;;;2.33;;
51036;SDS011;37064;59.346;18.058;2023-05-10T10:57:11;4.60;;;2.83;;
51036;SDS011;37064;59.346;18.058;2023-05-10T10:59:41;5.20;;;2.58;;
51036;SDS011;37064;59.346;18.058;2023-05-10T11:02:08;6.53;;;2.78;;
51036;SDS011;37064;59.346;18.058;2023-05-10T11:04:41;6.03;;;2.55;;
51036;SDS011;37064;59.346;18.058;2023-05-10T11:07:17;9.55;;;2.58;;
51036;SDS011;37064;59.346;18.058;2023-05-10T11:09:44;8.90;;;2.78;;
51036;SDS011;37064;59.346;18.058;2023-05-10T11:12:11;4.53;;;2.80;;
51036;SDS011;37064;59.346;18.058;2023-05-10T11:14:37;8.43;;;3.03;;
51036;SDS011;37064;59.346;18.058;2023-05-10T11:17:21;8.27;;;2.95;;
51036;SDS011;37064;59.346;18.058;2023-05-10T11:20:06;3.47;;;2.30;;
51036;SDS011;37064;59.346;18.058;2023-05-10T11:22:50;8.23;;;3.30;;
51036;SDS011;37064;59.346;18.058;2023-05-10T11:25:16;6.03;;;2.55;;
51036;SDS011;37064;59.346;18.058;2023-05-10T11:27:42;6.50;;;2.58;;
51036;SDS011;37064;59.346;18.058;2023-05-10T11:30:10;6.70;;;2.70;;
51036;SDS011;37064;59.346;18.058;2023-05-10T11:32:39;7.28;;;2.63;;
51036;SDS011;37064;59.346;18.058;2023-05-10T11:35:09;7.13;;;2.42;;
51036;SDS011;37064;59.346;18.058;2023-05-10T11:37:36;7.82;;;2.20;;
51036;SDS011;37064;59.346;18.058;2023-05-10T11:40:03;13.20;;;2.88;;
51036;SDS011;37064;59.346;18.058;2023-05-10T11:42:29;6.47;;;2.80;;
51036;SDS011;37064;59.346;18.058;2023-05-10T11:44:55;5.75;;;3.13;;
51036;SDS011;37064;59.346;18.058;2023-05-10T11:47:22;7.32;;;2.72;;
51036;SDS011;37064;59.346;18.058;2023-05-10T11:49:48;4.38;;;2.28;;
51036;SDS011;37064;59.346;18.058;2023-05-10T11:52:14;9.60;;;3.28;;
51036;SDS011;37064;59.346;18.058;2023-05-10T11:54:52;4.00;;;2.15;;
51036;SDS011;37064;59.346;18.058;2023-05-10T11:57:19;6.03;;;2.55;;
51036;SDS011;37064;59.346;18.058;2023-05-10T11:59:52;6.50;;;2.50;;
51036;SDS011;37064;59.346;18.058;2023-05-10T12:02:19;4.15;;;2.53;;
51036;SDS011;37064;59.346;18.058;2023-05-10T12:04:45;5.03;;;2.92;;
51036;SDS011;37064;59.346;18.058;2023-05-10T12:07:12;3.75;;;2.35;;
51036;SDS011;37064;59.346;18.058;2023-05-10T12:09:42;7.45;;;3.17;;
51036;SDS011;37064;59.346;18.058;2023-05-10T12:12:08;4.75;;;2.35;;
51036;SDS011;37064;59.346;18.058;2023-05-10T12:14:34;6.22;;;2.80;;
51036;SDS011;37064;59.346;18.058;2023-05-10T12:17:00;5.43;;;2.85;;
51036;SDS011;37064;59.346;18.058;2023-05-10T12:19:26;5.25;;;2.90;;
51036;SDS011;37064;59.346;18.058;2023-05-10T12:21:53;8.98;;;2.63;;
51036;SDS011;37064;59.346;18.058;2023-05-10T12:24:19;5.10;;;2.30;;
51036;SDS011;37064;59.346;18.058;2023-05-10T12:26:46;7.63;;;2.83;;
51036;SDS011;37064;59.346;18.058;2023-05-10T12:29:17;9.25;;;2.65;;
51036;SDS011;37064;59.346;18.058;2023-05-10T12:31:56;7.07;;;2.35;;
51036;SDS011;37064;59.346;18.058;2023-05-10T12:34:25;6.45;;;2.40;;
51036;SDS011;37064;59.346;18.058;2023-05-10T12:36:52;5.78;;;2.35;;
51036;SDS011;37064;59.346;18.058;2023-05-10T12:39:18;6.60;;;2.67;;
51036;SDS011;37064;59.346;18.058;2023-05-10T12:41:44;5.05;;;2.67;;
51036;SDS011;37064;59.346;18.058;2023-05-10T12:44:10;7.78;;;2.40;;
51036;SDS011;37064;59.346;18.058;2023-05-10T12:46:36;6.55;;;2.40;;
51036;SDS011;37064;59.346;18.058;2023-05-10T12:49:02;5.03;;;2.50;;
51036;SDS011;37064;59.346;18.058;2023-05-10T12:51:28;9.60;;;2.88;;
51036;SDS011;37064;59.346;18.058;2023-05-10T12:53:54;5.00;;;2.72;;
51036;SDS011;37064;59.346;18.058;2023-05-10T12:56:20;5.13;;;2.30;;
51036;SDS011;37064;59.346;18.058;2023-05-10T12:58:46;4.28;;;2.40;;
51036;SDS011;37064;59.346;18.058;2023-05-10T13:01:13;7.65;;;2.40;;
51036;SDS011;37064;59.346;18.058;2023-05-10T13:03:39;8.48;;;2.38;;
51036;SDS011;37064;59.346;18.058;2023-05-10T13:06:05;4.43;;;2.42;;
51036;SDS011;37064;59.346;18.058;2023-05-10T13:08:31;5.88;;;2.55;;
51036;SDS011;37064;59.346;18.058;2023-05-10T13:10:59;3.95;;;2.50;;
51036;SDS011;37064;59.346;18.058;2023-05-10T13:13:25;4.85;;;2.42;;
51036;SDS011;37064;59.346;18.058;2023-05-10T13:15:51;6.18;;;1.92;;
51036;SDS011;37064;59.346;18.058;2023-05-10T13:18:17;5.13;;;2.65;;
51036;SDS011;37064;59.346;18.058;2023-05-10T13:20:43;7.43;;;2.00;;
51036;SDS011;37064;59.346;18.058;2023-05-10T13:23:09;4.60;;;1.92;;
51036;SDS011;37064;59.346;18.058;2023-05-10T13:25:35;8.60;;;2.53;;
51036;SDS011;37064;59.346;18.058;2023-05-10T13:28:01;3.85;;;2.67;;
51036;SDS011;37064;59.346;18.058;2023-05-10T13:30:28;4.57;;;2.40;;
51036;SDS011;37064;59.346;18.058;2023-05-10T13:32:54;6.45;;;2.40;;
51036;SDS011;37064;59.346;18.058;2023-05-10T13:35:20;3.88;;;2.20;;
51036;SDS011;37064;59.346;18.058;2023-05-10T13:37:46;2.97;;;2.03;;
51036;SDS011;37064;59.346;18.058;2023-05-10T13:40:12;3.72;;;2.05;;
51036;SDS011;37064;59.346;18.058;2023-05-10T13:42:40;9.07;;;2.45;;
51036;SDS011;37064;59.346;18.058;2023-05-10T13:45:06;3.72;;;2.38;;
51036;SDS011;37064;59.346;18.058;2023-05-10T13:47:32;11.27;;;2.78;;
51036;SDS011;37064;59.346;18.058;2023-05-10T13:49:58;5.13;;;2.60;;
51036;SDS011;37064;59.346;18.058;2023-05-10T13:52:25;3.58;;;2.33;;
51036;SDS011;37064;59.346;18.058;2023-05-10T13:54:52;11.98;;;2.65;;
51036;SDS011;37064;59.346;18.058;2023-05-10T13:57:20;6.10;;;2.83;;
51036;SDS011;37064;59.346;18.058;2023-05-10T13:59:46;3.65;;;2.10;;
51036;SDS011;37064;59.346;18.058;2023-05-10T14:02:12;8.57;;;2.20;;
51036;SDS011;37064;59.346;18.058;2023-05-10T14:04:38;3.92;;;2.22;;
51036;SDS011;37064;59.346;18.058;2023-05-10T14:07:04;8.50;;;2.70;;
51036;SDS011;37064;59.346;18.058;2023-05-10T14:09:30;5.22;;;2.33;;
51036;SDS011;37064;59.346;18.058;2023-05-10T14:11:56;5.15;;;2.65;;
51036;SDS011;37064;59.346;18.058;2023-05-10T14:14:22;7.50;;;2.40;;
51036;SDS011;37064;59.346;18.058;2023-05-10T14:16:48;7.05;;;2.15;;
51036;SDS011;37064;59.346;18.058;2023-05-10T14:19:14;6.30;;;2.40;;
51036;SDS011;37064;59.346;18.058;2023-05-10T14:21:40;8.15;;;2.30;;
51036;SDS011;37064;59.346;18.058;2023-05-10T14:24:06;3.42;;;2.20;;
51036;SDS011;37064;59.346;18.058;2023-05-10T14:26:32;9.43;;;2.20;;
51036;SDS011;37064;59.346;18.058;2023-05-10T14:29:01;3.90;;;1.80;;
51036;SDS011;37064;59.346;18.058;2023-05-10T14:31:27;5.50;;;2.10;;
51036;SDS011;37064;59.346;18.058;2023-05-10T14:33:55;6.70;;;2.20;;
51036;SDS011;37064;59.346;18.058;2023-05-10T14:36:22;8.75;;;2.03;;
51036;SDS011;37064;59.346;18.058;2023-05-10T14:38:48;5.53;;;1.85;;
51036;SDS011;37064;59.346;18.058;2023-05-10T14:41:15;5.28;;;2.17;;
51036;SDS011;37064;59.346;18.058;2023-05-10T14:43:42;3.37;;;2.50;;
51036;SDS011;37064;59.346;18.058;2023-05-10T14:46:08;5.30;;;2.40;;
51036;SDS011;37064;59.346;18.058;2023-05-10T14:48:34;7.03;;;1.98;;
51036;SDS011;37064;59.346;18.058;2023-05-10T14:51:00;4.85;;;1.95;;
51036;SDS011;37064;59.346;18.058;2023-05-10T14:53:26;8.98;;;2.38;;
51036;SDS011;37064;59.346;18.058;2023-05-10T14:55:52;4.82;;;2.20;;
51036;SDS011;37064;59.346;18.058;2023-05-10T14:58:18;3.55;;;2.15;;
51036;SDS011;37064;59.346;18.058;2023-05-10T15:00:44;5.07;;;2.17;;